Terminal Aerodrome Forecast
Issued by NWS

Home | Current Version | Previous Version | Text Only | Print | Product List | Glossary On
Versions: 1 2 3 4 5 6 7 8 9 10 11 12
000
FTUS45 KGJT 291735
TAFVEL
TAF
KVEL 291735Z 2918/3018 20004KT P6SM FEW090
     FM292300 24005KT P6SM FEW110
     FM300200 28004KT P6SM SCT100
     FM301000 VRB04KT P6SM BKN070=

USA.gov is the U.S. government's official web portal to all federal, state and local government web resources and services.